sensor_id;sensor_type;location;lat;lon;timestamp;P1;durP1;ratioP1;P2;durP2;ratioP2
43901;SDS011;29562;40.390;-3.706;2023-06-22T00:09:17;6.63;;;2.95;;
43901;SDS011;29562;40.390;-3.706;2023-06-22T00:19:18;6.57;;;3.22;;
43901;SDS011;29562;40.390;-3.706;2023-06-22T00:29:19;7.32;;;3.72;;
43901;SDS011;29562;40.390;-3.706;2023-06-22T00:39:20;8.57;;;3.60;;
43901;SDS011;29562;40.390;-3.706;2023-06-22T00:49:22;6.00;;;3.75;;
43901;SDS011;29562;40.390;-3.706;2023-06-22T00:59:23;6.18;;;3.80;;
43901;SDS011;29562;40.390;-3.706;2023-06-22T01:09:27;11.13;;;3.72;;
43901;SDS011;29562;40.390;-3.706;2023-06-22T01:19:43;9.23;;;3.72;;
43901;SDS011;29562;40.390;-3.706;2023-06-22T01:29:48;9.05;;;4.47;;
43901;SDS011;29562;40.390;-3.706;2023-06-22T01:39:49;6.97;;;3.83;;
43901;SDS011;29562;40.390;-3.706;2023-06-22T01:49:51;6.80;;;3.53;;
43901;SDS011;29562;40.390;-3.706;2023-06-22T02:00:14;4.75;;;3.10;;
43901;SDS011;29562;40.390;-3.706;2023-06-22T02:10:14;7.78;;;3.47;;
43901;SDS011;29562;40.390;-3.706;2023-06-22T02:20:16;4.85;;;3.10;;
43901;SDS011;29562;40.390;-3.706;2023-06-22T02:30:18;9.00;;;3.95;;
43901;SDS011;29562;40.390;-3.706;2023-06-22T02:40:19;8.60;;;4.30;;
43901;SDS011;29562;40.390;-3.706;2023-06-22T02:50:20;7.20;;;4.18;;
43901;SDS011;29562;40.390;-3.706;2023-06-22T03:00:21;8.90;;;4.80;;
43901;SDS011;29562;40.390;-3.706;2023-06-22T03:10:22;6.57;;;4.10;;
43901;SDS011;29562;40.390;-3.706;2023-06-22T03:20:23;4.50;;;3.20;;
43901;SDS011;29562;40.390;-3.706;2023-06-22T03:30:26;5.40;;;2.80;;
43901;SDS011;29562;40.390;-3.706;2023-06-22T03:40:28;5.57;;;2.78;;
43901;SDS011;29562;40.390;-3.706;2023-06-22T03:50:29;5.38;;;2.75;;
43901;SDS011;29562;40.390;-3.706;2023-06-22T04:00:33;7.63;;;3.15;;
43901;SDS011;29562;40.390;-3.706;2023-06-22T04:10:34;4.90;;;2.53;;
43901;SDS011;29562;40.390;-3.706;2023-06-22T04:20:36;5.45;;;2.97;;
43901;SDS011;29562;40.390;-3.706;2023-06-22T04:30:37;7.43;;;2.58;;
43901;SDS011;29562;40.390;-3.706;2023-06-22T04:40:46;7.20;;;2.85;;
43901;SDS011;29562;40.390;-3.706;2023-06-22T04:50:47;6.50;;;3.17;;
43901;SDS011;29562;40.390;-3.706;2023-06-22T05:00:48;5.28;;;2.85;;
43901;SDS011;29562;40.390;-3.706;2023-06-22T05:10:52;10.20;;;4.78;;
43901;SDS011;29562;40.390;-3.706;2023-06-22T05:20:53;11.00;;;5.78;;
43901;SDS011;29562;40.390;-3.706;2023-06-22T05:30:54;9.80;;;5.43;;
43901;SDS011;29562;40.390;-3.706;2023-06-22T05:40:55;9.52;;;6.38;;
43901;SDS011;29562;40.390;-3.706;2023-06-22T05:50:56;10.00;;;6.72;;
43901;SDS011;29562;40.390;-3.706;2023-06-22T06:00:58;13.95;;;8.05;;
43901;SDS011;29562;40.390;-3.706;2023-06-22T06:11:00;9.45;;;6.47;;
43901;SDS011;29562;40.390;-3.706;2023-06-22T06:21:01;14.27;;;9.10;;
43901;SDS011;29562;40.390;-3.706;2023-06-22T06:31:02;14.65;;;8.20;;
43901;SDS011;29562;40.390;-3.706;2023-06-22T06:41:07;13.98;;;7.72;;
43901;SDS011;29562;40.390;-3.706;2023-06-22T06:51:08;9.02;;;6.25;;
43901;SDS011;29562;40.390;-3.706;2023-06-22T07:01:09;13.32;;;8.07;;
43901;SDS011;29562;40.390;-3.706;2023-06-22T07:11:10;15.85;;;8.45;;
43901;SDS011;29562;40.390;-3.706;2023-06-22T07:21:11;13.85;;;7.18;;
43901;SDS011;29562;40.390;-3.706;2023-06-22T07:31:12;9.90;;;6.15;;
43901;SDS011;29562;40.390;-3.706;2023-06-22T07:41:13;15.68;;;7.10;;
43901;SDS011;29562;40.390;-3.706;2023-06-22T07:51:15;11.27;;;7.07;;
43901;SDS011;29562;40.390;-3.706;2023-06-22T08:01:17;13.35;;;7.30;;
43901;SDS011;29562;40.390;-3.706;2023-06-22T08:11:20;10.45;;;6.03;;
43901;SDS011;29562;40.390;-3.706;2023-06-22T08:21:23;9.52;;;5.95;;
43901;SDS011;29562;40.390;-3.706;2023-06-22T08:31:25;10.93;;;5.97;;
43901;SDS011;29562;40.390;-3.706;2023-06-22T08:41:26;11.55;;;6.68;;
43901;SDS011;29562;40.390;-3.706;2023-06-22T08:51:27;10.00;;;6.15;;
43901;SDS011;29562;40.390;-3.706;2023-06-22T09:01:29;9.60;;;5.50;;
43901;SDS011;29562;40.390;-3.706;2023-06-22T09:11:30;9.90;;;5.07;;
43901;SDS011;29562;40.390;-3.706;2023-06-22T09:21:31;11.35;;;5.80;;
43901;SDS011;29562;40.390;-3.706;2023-06-22T09:31:32;6.90;;;4.78;;
43901;SDS011;29562;40.390;-3.706;2023-06-22T09:41:33;10.07;;;5.18;;
43901;SDS011;29562;40.390;-3.706;2023-06-22T09:51:34;8.60;;;3.63;;
43901;SDS011;29562;40.390;-3.706;2023-06-22T10:01:35;9.50;;;4.68;;
43901;SDS011;29562;40.390;-3.706;2023-06-22T10:11:37;10.27;;;7.35;;
43901;SDS011;29562;40.390;-3.706;2023-06-22T10:21:38;12.88;;;7.72;;
43901;SDS011;29562;40.390;-3.706;2023-06-22T10:31:39;11.05;;;7.50;;
43901;SDS011;29562;40.390;-3.706;2023-06-22T10:41:40;8.90;;;5.93;;
43901;SDS011;29562;40.390;-3.706;2023-06-22T10:51:41;8.95;;;5.85;;
43901;SDS011;29562;40.390;-3.706;2023-06-22T11:01:42;9.75;;;6.13;;
43901;SDS011;29562;40.390;-3.706;2023-06-22T11:11:44;7.55;;;4.68;;
43901;SDS011;29562;40.390;-3.706;2023-06-22T11:21:45;10.13;;;5.18;;
43901;SDS011;29562;40.390;-3.706;2023-06-22T11:31:46;10.43;;;6.18;;
43901;SDS011;29562;40.390;-3.706;2023-06-22T11:41:47;4.22;;;3.08;;
43901;SDS011;29562;40.390;-3.706;2023-06-22T11:51:48;5.07;;;2.55;;
43901;SDS011;29562;40.390;-3.706;2023-06-22T12:01:49;5.43;;;2.97;;
43901;SDS011;29562;40.390;-3.706;2023-06-22T12:11:51;4.97;;;2.20;;
43901;SDS011;29562;40.390;-3.706;2023-06-22T12:21:52;3.60;;;2.38;;
43901;SDS011;29562;40.390;-3.706;2023-06-22T12:31:53;3.47;;;2.17;;
43901;SDS011;29562;40.390;-3.706;2023-06-22T12:41:55;5.10;;;1.90;;
43901;SDS011;29562;40.390;-3.706;2023-06-22T12:51:56;3.13;;;2.20;;
43901;SDS011;29562;40.390;-3.706;2023-06-22T13:01:57;17.05;;;4.03;;
43901;SDS011;29562;40.390;-3.706;2023-06-22T13:11:59;6.03;;;2.83;;
43901;SDS011;29562;40.390;-3.706;2023-06-22T13:22:00;7.50;;;3.20;;
43901;SDS011;29562;40.390;-3.706;2023-06-22T13:32:04;3.53;;;2.05;;
43901;SDS011;29562;40.390;-3.706;2023-06-22T13:42:05;3.92;;;1.92;;
43901;SDS011;29562;40.390;-3.706;2023-06-22T13:52:06;4.35;;;2.30;;
43901;SDS011;29562;40.390;-3.706;2023-06-22T14:02:10;7.22;;;4.97;;
43901;SDS011;29562;40.390;-3.706;2023-06-22T14:12:11;3.45;;;2.30;;
43901;SDS011;29562;40.390;-3.706;2023-06-22T14:22:12;3.60;;;2.50;;
43901;SDS011;29562;40.390;-3.706;2023-06-22T14:32:13;3.70;;;2.17;;
43901;SDS011;29562;40.390;-3.706;2023-06-22T14:42:14;7.32;;;2.33;;
43901;SDS011;29562;40.390;-3.706;2023-06-22T14:52:16;2.53;;;2.03;;
43901;SDS011;29562;40.390;-3.706;2023-06-22T15:02:17;3.58;;;2.00;;
43901;SDS011;29562;40.390;-3.706;2023-06-22T15:12:18;3.25;;;2.15;;
43901;SDS011;29562;40.390;-3.706;2023-06-22T15:22:19;3.72;;;2.20;;
43901;SDS011;29562;40.390;-3.706;2023-06-22T15:32:20;3.92;;;2.15;;
43901;SDS011;29562;40.390;-3.706;2023-06-22T15:42:22;4.75;;;2.50;;
43901;SDS011;29562;40.390;-3.706;2023-06-22T15:52:23;3.08;;;2.20;;
43901;SDS011;29562;40.390;-3.706;2023-06-22T16:02:25;4.15;;;3.10;;
43901;SDS011;29562;40.390;-3.706;2023-06-22T16:12:28;4.72;;;2.90;;
43901;SDS011;29562;40.390;-3.706;2023-06-22T16:22:29;3.78;;;2.55;;
43901;SDS011;29562;40.390;-3.706;2023-06-22T16:32:30;4.20;;;2.38;;
43901;SDS011;29562;40.390;-3.706;2023-06-22T16:42:31;3.47;;;2.50;;
43901;SDS011;29562;40.390;-3.706;2023-06-22T16:52:32;4.10;;;2.70;;
43901;SDS011;29562;40.390;-3.706;2023-06-22T17:02:35;6.47;;;3.05;;
43901;SDS011;29562;40.390;-3.706;2023-06-22T17:12:38;4.65;;;2.28;;
43901;SDS011;29562;40.390;-3.706;2023-06-22T17:22:40;5.13;;;3.22;;
43901;SDS011;29562;40.390;-3.706;2023-06-22T17:32:47;4.35;;;2.90;;
43901;SDS011;29562;40.390;-3.706;2023-06-22T17:42:48;3.50;;;2.38;;
43901;SDS011;29562;40.390;-3.706;2023-06-22T17:52:50;6.97;;;2.83;;
43901;SDS011;29562;40.390;-3.706;2023-06-22T18:02:54;8.38;;;2.42;;
43901;SDS011;29562;40.390;-3.706;2023-06-22T18:12:55;4.78;;;2.00;;
43901;SDS011;29562;40.390;-3.706;2023-06-22T18:22:57;4.90;;;2.22;;
43901;SDS011;29562;40.390;-3.706;2023-06-22T18:32:58;5.07;;;3.00;;
43901;SDS011;29562;40.390;-3.706;2023-06-22T18:42:59;3.90;;;2.28;;
43901;SDS011;29562;40.390;-3.706;2023-06-22T18:53:01;3.70;;;2.60;;
43901;SDS011;29562;40.390;-3.706;2023-06-22T19:03:03;5.20;;;3.25;;
43901;SDS011;29562;40.390;-3.706;2023-06-22T19:13:17;4.80;;;3.40;;
43901;SDS011;29562;40.390;-3.706;2023-06-22T19:23:28;6.63;;;3.22;;
43901;SDS011;29562;40.390;-3.706;2023-06-22T19:33:30;4.95;;;2.22;;
43901;SDS011;29562;40.390;-3.706;2023-06-22T19:43:32;5.20;;;3.33;;
43901;SDS011;29562;40.390;-3.706;2023-06-22T19:53:33;3.85;;;2.40;;
43901;SDS011;29562;40.390;-3.706;2023-06-22T20:03:38;5.43;;;2.72;;
43901;SDS011;29562;40.390;-3.706;2023-06-22T20:13:51;5.55;;;2.95;;
43901;SDS011;29562;40.390;-3.706;2023-06-22T20:23:52;3.90;;;2.70;;
43901;SDS011;29562;40.390;-3.706;2023-06-22T20:34:02;6.93;;;3.70;;
43901;SDS011;29562;40.390;-3.706;2023-06-22T20:44:03;6.97;;;2.85;;
43901;SDS011;29562;40.390;-3.706;2023-06-22T20:54:05;7.90;;;4.75;;
43901;SDS011;29562;40.390;-3.706;2023-06-22T21:04:06;9.35;;;3.83;;
43901;SDS011;29562;40.390;-3.706;2023-06-22T21:14:07;7.30;;;3.22;;
43901;SDS011;29562;40.390;-3.706;2023-06-22T21:24:08;6.30;;;3.10;;
43901;SDS011;29562;40.390;-3.706;2023-06-22T21:34:09;12.77;;;7.32;;
43901;SDS011;29562;40.390;-3.706;2023-06-22T21:44:11;6.75;;;4.10;;
43901;SDS011;29562;40.390;-3.706;2023-06-22T21:54:12;7.82;;;4.18;;
43901;SDS011;29562;40.390;-3.706;2023-06-22T22:04:14;7.78;;;4.18;;
43901;SDS011;29562;40.390;-3.706;2023-06-22T22:14:16;10.77;;;5.50;;
43901;SDS011;29562;40.390;-3.706;2023-06-22T22:24:18;6.75;;;4.32;;
43901;SDS011;29562;40.390;-3.706;2023-06-22T22:34:19;7.53;;;4.60;;
43901;SDS011;29562;40.390;-3.706;2023-06-22T22:44:20;6.93;;;4.60;;
43901;SDS011;29562;40.390;-3.706;2023-06-22T22:54:21;6.70;;;4.50;;
43901;SDS011;29562;40.390;-3.706;2023-06-22T23:04:22;5.15;;;3.28;;
43901;SDS011;29562;40.390;-3.706;2023-06-22T23:14:23;5.60;;;2.95;;
43901;SDS011;29562;40.390;-3.706;2023-06-22T23:24:24;7.63;;;3.17;;
43901;SDS011;29562;40.390;-3.706;2023-06-22T23:34:26;7.45;;;4.00;;
43901;SDS011;29562;40.390;-3.706;2023-06-22T23:44:27;6.03;;;2.75;;
43901;SDS011;29562;40.390;-3.706;2023-06-22T23:54:28;4.57;;;2.97;;
